Flight Track Log - Related Links

Times and Time Zones

All times are in EST time to prevent confusion due to time zone crossing. See the JBU1034 flight status page for this flight to view local times or setup timezone preferences in your user account.

Time Position Orientation Groundspeed Altitude Reporting Facility
EST Latitude Longitude Course Direction KTS MPH feet Rate Location/Type
Mon 05:24:30 PM 18.4833 -65.9833 310° West 210 242 1,600  Level San Juan Center
Mon 05:25:31 PM 18.5333 -66.0000 342° North 220 253 4,200 2,678 Climbing San Juan Center
Mon 05:26:00 PM 18.7191 -66.3765 317° Northwest  Level Estimated
Mon 05:26:31 PM 18.6000 -66.0333 335° Northwest 260 299 7,000  Level San Juan Center
Mon 05:27:00 PM 18.7889 -66.4704 305° West  Level Estimated
Mon 05:27:31 PM 18.6500 -66.1000 308° West 270 311 9,500  Level San Juan Center
Mon 05:28:00 PM 18.8662 -66.5322 323° Northwest  Level FlightAware Approximate
Mon 05:28:31 PM 18.7000 -66.1667 308° West 290 334 11,500  Level San Juan Center
Mon 05:29:00 PM 18.9259 -66.6129 310° West  Level Estimated
Mon 05:29:31 PM 18.7667 -66.2333 317° Northwest 340 391 12,500  Level San Juan Center
Mon 05:30:31 PM 18.8167 -66.3167 302° West 360 414 14,600 2,000 Climbing San Juan Center
Mon 05:31:31 PM 18.8833 -66.4000 310° West 370 426 16,500 1,900 Climbing San Juan Center
Mon 05:32:31 PM 18.9667 -66.4833 317° Northwest 380 437 18,400 1,835 Climbing San Juan Center
Mon 05:33:32 PM 19.0333 -66.5833 305° West 390 449 20,200 1,736 Climbing San Juan Center
Mon 05:34:32 PM 19.1000 -66.6667 310° West 400 460 21,900 1,450 Climbing San Juan Center
Mon 05:35:32 PM 19.1667 -66.7500 310° West 400 460 23,100 1,250 Climbing San Juan Center
Mon 05:36:32 PM 19.2333 -66.8333 310° West 410 472 24,400 1,350 Climbing San Juan Center
Mon 05:37:32 PM 19.3167 -66.9333 311° West 420 483 25,800 1,400 Climbing San Juan Center
Mon 05:38:32 PM 19.3833 -67.0333 305° West 420 483 27,200 1,200 Climbing San Juan Center
Mon 05:39:32 PM 19.4667 -67.1333 311° West 420 483 28,200 1,041 Climbing San Juan Center
Mon 05:40:33 PM 19.5333 -67.2333 305° West 420 483 29,300 1,339 Climbing San Juan Center
Mon 05:41:33 PM 19.6167 -67.3167 317° Northwest 420 483 30,900 1,300 Climbing San Juan Center
Mon 05:42:33 PM 19.6833 -67.4167 305° West 410 472 31,900 1,100 Climbing San Juan Center
Mon 05:43:33 PM 19.7500 -67.5167 305° West 410 472 33,100 1,200 Climbing San Juan Center
Mon 05:44:33 PM 19.8333 -67.6000 317° Northwest 400 460 34,300 1,050 Climbing San Juan Center
Mon 05:45:33 PM 19.9000 -67.7000 305° West 390 449 35,200 850 Climbing San Juan Center
Mon 05:46:33 PM 19.9667 -67.7833 310° West 400 460 36,000 400 Climbing San Juan Center
Mon 05:47:33 PM 20.0333 -67.8667 310° West 390 449 36,000  Level San Juan Center
Mon 05:49:39 PM 20.1911 -68.0719 309° West 440 506 36,000  Level Miami Center
Mon 05:50:39 PM 20.2486 -68.1719 302° West 410 472 36,000  Level Miami Center
Mon 05:51:39 PM 20.3106 -68.2739 303° West 405 466 36,000  Level Miami Center
Mon 05:52:39 PM 20.3642 -68.3786 299° West 400 460 36,000  Level Miami Center
Mon 05:53:39 PM 20.4197 -68.4811 300° West 400 460 36,000  Level Miami Center
Mon 05:54:39 PM 20.4772 -68.5836 301° West 400 460 36,000  Level Miami Center
Mon 05:55:39 PM 20.5286 -68.6889 298° West 400 460 36,000  Level Miami Center
Mon 05:56:39 PM 20.5839 -68.7939 299° West 400 460 36,000  Level Miami Center
Mon 05:57:39 PM 20.6439 -68.9053 300° West 400 460 36,000  Level Miami Center
Mon 05:58:39 PM 20.7033 -69.0081 302° West 400 460 36,000  Level Miami Center
Mon 05:59:39 PM 20.7606 -69.1133 300° West 405 466 36,000  Level Miami Center
Mon 06:00:39 PM 20.8139 -69.2211 298° West 405 466 36,000  Level Miami Center
Mon 06:01:39 PM 20.8711 -69.3242 301° West 405 466 36,000  Level Miami Center
Mon 06:02:39 PM 20.9281 -69.4297 300° West 405 466 36,000  Level Miami Center
Mon 06:03:39 PM 20.9811 -69.5356 298° West 405 466 36,000  Level Miami Center
Mon 06:04:39 PM 21.0403 -69.6433 300° West 405 466 36,000  Level Miami Center
Mon 06:05:39 PM 21.0953 -69.7492 299° West 405 466 36,000  Level Miami Center
Mon 06:06:39 PM 21.1525 -69.8572 300° West 405 466 36,000  Level Miami Center
Mon 06:07:39 PM 21.2092 -69.9631 300° West 405 466 36,000  Level Miami Center
Mon 06:08:39 PM 21.2639 -70.0692 299° West 405 466 36,000  Level Miami Center
Mon 06:09:39 PM 21.3189 -70.1778 299° West 405 466 36,000  Level Miami Center
Mon 06:10:39 PM 21.3778 -70.2861 300° West 405 466 36,000  Level Miami Center
Mon 06:11:39 PM 21.4322 -70.3903 299° West 405 466 36,000  Level Miami Center
Mon 06:12:39 PM 21.4867 -70.4992 298° West 405 466 36,000  Level Miami Center
Mon 06:13:39 PM 21.5453 -70.6056 301° West 405 466 36,000  Level Miami Center
Mon 06:14:39 PM 21.5997 -70.7144 298° West 405 466 36,000  Level Miami Center
Mon 06:15:39 PM 21.6583 -70.8211 301° West 405 466 36,000  Level Miami Center
Mon 06:16:39 PM 21.7081 -70.9214 298° West 405 466 36,000  Level Miami Center
Mon 06:17:39 PM 21.7644 -71.0306 299° West 411 473 36,000  Level Miami Center
Mon 06:18:39 PM 21.8206 -71.1397 299° West 411 473 36,000  Level Miami Center
Mon 06:19:39 PM 21.8769 -71.2492 299° West 411 473 36,000  Level Miami Center
Mon 06:20:39 PM 21.9308 -71.3586 298° West 411 473 36,000  Level Miami Center
Mon 06:21:39 PM 21.9869 -71.4681 299° West 416 479 36,000  Level Miami Center
Mon 06:22:39 PM 22.0431 -71.5778 299° West 421 484 36,000  Level Miami Center
Mon 06:23:39 PM 22.0989 -71.6875 299° West 421 484 36,000  Level Miami Center
Mon 06:24:39 PM 22.1547 -71.7972 299° West 421 484 36,000  Level Miami Center
Mon 06:25:39 PM 22.2086 -71.9094 297° West 421 484 36,000  Level Miami Center
Mon 06:26:39 PM 22.2642 -72.0150 300° West 421 484 36,000  Level Miami Center
Mon 06:27:39 PM 22.3219 -72.1272 299° West 421 484 36,000  Level Miami Center
Mon 06:28:39 PM 22.3714 -72.2400 295° West 421 484 36,000  Level Miami Center
Mon 06:29:39 PM 22.4269 -72.3481 299° West 421 484 36,000  Level Miami Center
Mon 06:30:39 PM 22.4822 -72.4586 298° West 421 484 36,000  Level Miami Center
Mon 06:31:39 PM 22.5397 -72.5667 300° West 421 484 36,000  Level Miami Center
Mon 06:32:39 PM 22.5908 -72.6775 297° West 421 484 36,000  Level Miami Center
Mon 06:33:39 PM 22.6461 -72.7881 298° West 421 484 36,000  Level Miami Center
Mon 06:34:39 PM 22.7011 -72.8989 298° West 421 484 36,000  Level Miami Center
Mon 06:35:39 PM 22.7561 -73.0075 299° West 421 484 36,000  Level Miami Center
Mon 06:36:39 PM 22.8111 -73.1186 298° West 421 484 36,000  Level Miami Center
Mon 06:37:39 PM 22.8744 -73.2317 301° West 409 471 36,000  Level Miami Center
Mon 06:38:39 PM 22.9272 -73.3406 298° West 409 471 36,000  Level Miami Center
Mon 06:39:39 PM 22.9842 -73.4519 299° West 409 471 36,000  Level Miami Center
Mon 06:40:39 PM 23.0367 -73.5611 298° West 404 465 36,000  Level Miami Center
Mon 06:41:39 PM 23.0933 -73.6725 299° West 404 465 36,000  Level Miami Center
Mon 06:42:39 PM 23.1458 -73.7819 298° West 404 465 36,000  Level Miami Center
Mon 06:43:39 PM 23.1981 -73.8936 297° West 404 465 36,000  Level Miami Center
Mon 06:44:39 PM 23.2547 -74.0031 299° West 404 465 36,000  Level Miami Center
Mon 06:45:39 PM 23.3089 -74.1125 298° West 409 471 36,000  Level Miami Center
Mon 06:46:39 PM 23.3611 -74.2247 297° West 409 471 36,000  Level Miami Center
Mon 06:47:39 PM 23.4172 -74.3367 299° West 409 471 36,000  Level Miami Center
Mon 06:48:39 PM 23.4692 -74.4489 297° West 409 471 36,000  Level Miami Center
Mon 06:49:39 PM 23.5275 -74.5611 300° West 414 476 36,000  Level Miami Center
Mon 06:50:39 PM 23.5814 -74.6733 298° West 420 483 36,000  Level Miami Center
Mon 06:51:39 PM 23.6353 -74.7858 298° West 420 483 36,000  Level Miami Center
Mon 06:52:39 PM 23.6911 -74.8983 298° West 420 483 36,000  Level Miami Center
Mon 06:53:39 PM 23.7447 -75.0111 297° West 420 483 36,000  Level Miami Center
Mon 06:54:39 PM 23.7983 -75.1217 298° West 420 483 36,000  Level Miami Center
Mon 06:55:39 PM 23.8517 -75.2322 298° West 415 478 36,000  Level Miami Center
Mon 06:56:39 PM 23.9053 -75.3475 297° West 415 478 36,000  Level Miami Center
Mon 06:57:39 PM 23.9586 -75.4606 297° West 421 484 36,000  Level Miami Center
Mon 06:58:39 PM 24.0119 -75.5736 297° West 421 484 36,000  Level Miami Center
Mon 06:59:39 PM 24.0672 -75.6867 298° West 421 484 36,000  Level Miami Center
Mon 07:00:39 PM 24.1181 -75.8000 296° West 421 484 36,000  Level Miami Center
Mon 07:01:39 PM 24.1733 -75.9181 297° West 421 484 36,000  Level Miami Center
Mon 07:02:39 PM 24.2261 -76.0317 297° West 421 484 36,000  Level Miami Center
Mon 07:03:39 PM 24.2792 -76.1453 297° West 421 484 36,000  Level Miami Center
Mon 07:04:39 PM 24.3339 -76.2589 298° West 421 484 36,000  Level Miami Center
Mon 07:05:39 PM 24.3867 -76.3728 297° West 421 484 36,000  Level Miami Center
Mon 07:06:39 PM 24.4308 -76.4753 295° West 421 484 36,000  Level Miami Center
Mon 07:07:39 PM 24.4853 -76.5917 297° West 421 484 36,000  Level Miami Center
Mon 07:08:39 PM 24.5358 -76.7058 296° West 421 484 36,000  Level Miami Center
Mon 07:09:39 PM 24.5881 -76.8200 297° West 421 484 36,000  Level Miami Center
Mon 07:10:39 PM 24.6425 -76.9319 298° West 416 479 36,000  Level Miami Center
Mon 07:11:39 PM 24.6944 -77.0464 297° West 416 479 36,000  Level Miami Center
Mon 07:12:39 PM 24.7467 -77.1608 297° West 421 484 36,000  Level Miami Center
Mon 07:13:39 PM 24.7964 -77.2756 296° West 421 484 36,000  Level Miami Center
Mon 07:14:39 PM 24.8483 -77.3903 297° West 421 484 36,000  Level Miami Center
Mon 07:15:39 PM 24.9022 -77.5072 297° West 421 484 36,000  Level Miami Center
Mon 07:16:39 PM 24.9539 -77.6267 296° West 427 491 36,000  Level Miami Center
Mon 07:17:39 PM 25.0097 -77.7417 298° West 427 491 36,000  Level Miami Center
Mon 07:18:39 PM 25.0614 -77.8544 297° West 421 484 36,000  Level Miami Center
Mon 07:19:39 PM 25.1128 -77.9719 296° West 421 484 36,000  Level Miami Center
Mon 07:20:39 PM 25.1661 -78.0872 297° West 426 490 36,000  Level Miami Center
Mon 07:21:39 PM 25.2172 -78.2025 296° West 426 490 36,000  Level Miami Center
Mon 07:22:39 PM 25.2706 -78.3181 297° West 426 490 36,000  Level Miami Center
Mon 07:23:39 PM 25.3236 -78.4336 297° West 426 490 36,000  Level Miami Center
Mon 07:24:39 PM 25.3725 -78.5517 295° West 426 490 36,000  Level Miami Center
Mon 07:25:39 PM 25.4214 -78.6672 295° West 421 484 36,000  Level Miami Center
Mon 07:26:39 PM 25.4742 -78.7831 297° West 421 484 36,000  Level Miami Center
Mon 07:27:39 PM 25.5333 -78.8992 299° West 426 490 36,000  Level Miami Center
Mon 07:28:39 PM 25.5775 -79.0175 293° West 426 490 36,000  Level Miami Center
Mon 07:29:39 PM 25.6300 -79.1336 297° West 426 490 36,000  Level Miami Center
Mon 07:30:39 PM 25.6864 -79.2661 295° West 426 490 36,000  Level Miami Center
Mon 07:31:39 PM 25.7267 -79.3592 296° West 421 484 36,000  Level Miami Center
Mon 07:32:39 PM 25.7869 -79.5011 295° West 421 484 36,000  Level Miami Center
Mon 07:33:39 PM 25.8411 -79.6178 297° West 426 490 36,000  Level Miami Center
Mon 07:34:39 PM 25.8911 -79.7322 296° West 426 490 36,000 -350 Level Miami Center
Mon 07:35:39 PM 25.9411 -79.8511 295° West 426 490 35,300 -1,400 Descending Miami Center
Mon 07:36:39 PM 25.9908 -79.9703 295° West 426 490 33,200 -2,200 Descending Miami Center
Mon 07:37:39 PM 26.0425 -80.0894 296° West 426 490 30,900 -1,600 Descending Miami Center
Mon 07:38:39 PM 26.1197 -80.1864 312° West 416 479 30,000 -450 Descending Miami Center
Mon 07:39:39 PM 26.2333 -80.2453 335° Northwest 423 487 30,000 -150 Level Miami Center
Mon 07:40:39 PM 26.3428 -80.3017 335° Northwest 423 487 29,700 -450 Descending Miami Center
Mon 07:41:39 PM 26.4500 -80.3558 336° Northwest 428 493 29,100 -850 Descending Miami Center
Mon 07:42:39 PM 26.5594 -80.4125 335° Northwest 428 493 28,000 -1,200 Descending Miami Center
Mon 07:43:39 PM 26.6686 -80.4669 336° Northwest 428 493 26,700 -1,350 Descending Miami Center
Mon 07:44:39 PM 26.7697 -80.5189 335° Northwest 417 480 25,300 -1,250 Descending Miami Center
Mon 07:45:39 PM 26.8644 -80.5661 336° Northwest 412 474 24,200 -1,250 Descending Miami Center
Mon 07:46:39 PM 26.9675 -80.6183 336° Northwest 407 468 22,800 -1,350 Descending Miami Center
Mon 07:47:39 PM 27.0686 -80.6706 335° Northwest 401 461 21,500 -1,250 Descending Miami Center
Mon 07:48:39 PM 27.1675 -80.7181 337° Northwest 394 453 20,300 -1,250 Descending Miami Center
Mon 07:49:39 PM 27.2622 -80.7681 335° Northwest 383 441 19,000 -1,300 Descending Miami Center
Mon 07:50:39 PM 27.3661 -80.7856 351° North 374 430 17,700 -1,400 Descending Miami Center
Mon 07:51:39 PM 27.4658 -80.8078 349° North 374 430 16,200 -1,500 Descending Miami Center
Mon 07:52:39 PM 27.5561 -80.8600 333° Northwest 368 423 14,700 -1,600 Descending Miami Center
Mon 07:53:39 PM 27.6483 -80.9194 330° Northwest 357 411 13,000 -1,550 Descending Miami Center
Mon 07:54:39 PM 27.7303 -80.9739 330° Northwest 347 399 11,600 -1,350 Descending Miami Center
Mon 07:55:39 PM 27.7981 -81.0186 330° Northwest 322 371 10,300 -1,300 Descending Miami Center
Mon 07:57:00 PM 27.9266 -81.0960 332° Northwest  Level FlightAware Approximate
Mon 08:04:00 PM 28.4294 -81.3090 North  Level Estimated
Mon 08:05:00 PM 28.4294 -81.3090 270° West  Level Estimated
Mon 08:06:00 PM 28.4294 -81.3090 196° South  Level Estimated
Mon 08:07:00 PM 28.4294 -81.3090 199° South  Level Estimated
Mon 08:08:00 PM 28.4294 -81.3090 199° South  Level Estimated
Mon 08:09:00 PM 28.4294 -81.3090 199° South  Level Estimated
Mon 08:10:00 PM 28.4294 -81.3090 199° South  Level Estimated
Mon 08:11:00 PM 28.4294 -81.3090 199° South  Level Estimated
Mon 08:12:00 PM 28.4294 -81.3090 199° South  Level Estimated
Mon 08:13:00 PM 28.4294 -81.3090 199° South  Level Estimated
Mon 08:14:00 PM 28.4294 -81.3090 199° South  Level Estimated
Mon 08:15:00 PM 28.4294 -81.3090 199° South  Level Estimated
Mon 08:16:00 PM 28.4294 -81.3090 199° South  Level Estimated
Mon 08:17:00 PM 28.4294 -81.3090 199° South  Level Estimated

Login

Don't have an account? Register now (free) for customized features, flight alerts, and more!